sensor_id;sensor_type;location;lat;lon;timestamp;P1;durP1;ratioP1;P2;durP2;ratioP2
75937;SDS011;64615;32.062;34.834;2023-11-19T00:02:23;10.63;;;3.00;;
75937;SDS011;64615;32.062;34.834;2023-11-19T00:04:49;8.18;;;3.22;;
75937;SDS011;64615;32.062;34.834;2023-11-19T00:07:14;8.27;;;2.65;;
75937;SDS011;64615;32.062;34.834;2023-11-19T00:09:41;8.45;;;2.92;;
75937;SDS011;64615;32.062;34.834;2023-11-19T00:12:07;7.43;;;2.55;;
75937;SDS011;64615;32.062;34.834;2023-11-19T00:14:35;8.65;;;2.63;;
75937;SDS011;64615;32.062;34.834;2023-11-19T00:17:01;8.27;;;3.08;;
75937;SDS011;64615;32.062;34.834;2023-11-19T00:19:27;8.80;;;2.80;;
75937;SDS011;64615;32.062;34.834;2023-11-19T00:21:53;10.07;;;3.33;;
75937;SDS011;64615;32.062;34.834;2023-11-19T00:24:18;8.10;;;3.30;;
75937;SDS011;64615;32.062;34.834;2023-11-19T00:26:45;6.63;;;2.72;;
75937;SDS011;64615;32.062;34.834;2023-11-19T00:29:11;9.75;;;3.08;;
75937;SDS011;64615;32.062;34.834;2023-11-19T00:31:38;8.13;;;3.00;;
75937;SDS011;64615;32.062;34.834;2023-11-19T00:34:04;9.32;;;3.22;;
75937;SDS011;64615;32.062;34.834;2023-11-19T00:36:31;9.52;;;3.00;;
75937;SDS011;64615;32.062;34.834;2023-11-19T00:38:57;7.75;;;3.05;;
75937;SDS011;64615;32.062;34.834;2023-11-19T00:41:23;11.88;;;3.30;;
75937;SDS011;64615;32.062;34.834;2023-11-19T00:43:48;7.40;;;2.92;;
75937;SDS011;64615;32.062;34.834;2023-11-19T00:46:14;7.35;;;3.00;;
75937;SDS011;64615;32.062;34.834;2023-11-19T00:48:40;7.47;;;3.03;;
75937;SDS011;64615;32.062;34.834;2023-11-19T00:51:05;7.95;;;3.17;;
75937;SDS011;64615;32.062;34.834;2023-11-19T00:53:31;7.22;;;3.00;;
75937;SDS011;64615;32.062;34.834;2023-11-19T00:55:59;7.75;;;3.50;;
75937;SDS011;64615;32.062;34.834;2023-11-19T00:58:25;10.00;;;2.85;;
75937;SDS011;64615;32.062;34.834;2023-11-19T01:00:51;8.70;;;3.00;;
75937;SDS011;64615;32.062;34.834;2023-11-19T01:03:16;9.93;;;3.20;;
75937;SDS011;64615;32.062;34.834;2023-11-19T01:05:42;8.35;;;2.90;;
75937;SDS011;64615;32.062;34.834;2023-11-19T01:08:09;6.35;;;2.80;;
75937;SDS011;64615;32.062;34.834;2023-11-19T01:10:36;6.82;;;2.80;;
75937;SDS011;64615;32.062;34.834;2023-11-19T01:13:02;7.22;;;2.83;;
75937;SDS011;64615;32.062;34.834;2023-11-19T01:15:31;6.70;;;2.75;;
75937;SDS011;64615;32.062;34.834;2023-11-19T01:17:57;8.85;;;3.00;;
75937;SDS011;64615;32.062;34.834;2023-11-19T01:20:23;11.52;;;3.75;;
75937;SDS011;64615;32.062;34.834;2023-11-19T01:22:48;8.07;;;3.10;;
75937;SDS011;64615;32.062;34.834;2023-11-19T01:25:14;6.97;;;2.92;;
75937;SDS011;64615;32.062;34.834;2023-11-19T01:27:40;7.18;;;2.92;;
75937;SDS011;64615;32.062;34.834;2023-11-19T01:30:06;9.50;;;3.35;;
75937;SDS011;64615;32.062;34.834;2023-11-19T01:32:34;7.68;;;2.88;;
75937;SDS011;64615;32.062;34.834;2023-11-19T01:35:02;8.18;;;3.10;;
75937;SDS011;64615;32.062;34.834;2023-11-19T01:37:28;8.88;;;3.15;;
75937;SDS011;64615;32.062;34.834;2023-11-19T01:39:54;7.50;;;2.90;;
75937;SDS011;64615;32.062;34.834;2023-11-19T01:42:19;10.05;;;3.40;;
75937;SDS011;64615;32.062;34.834;2023-11-19T01:44:55;8.23;;;3.15;;
75937;SDS011;64615;32.062;34.834;2023-11-19T01:47:23;10.02;;;3.10;;
75937;SDS011;64615;32.062;34.834;2023-11-19T01:49:49;9.90;;;3.65;;
75937;SDS011;64615;32.062;34.834;2023-11-19T01:52:16;8.15;;;3.40;;
75937;SDS011;64615;32.062;34.834;2023-11-19T01:54:42;8.90;;;3.42;;
75937;SDS011;64615;32.062;34.834;2023-11-19T01:57:07;7.50;;;3.83;;
75937;SDS011;64615;32.062;34.834;2023-11-19T01:59:34;9.52;;;3.28;;
75937;SDS011;64615;32.062;34.834;2023-11-19T02:02:00;7.20;;;3.03;;
75937;SDS011;64615;32.062;34.834;2023-11-19T02:04:26;7.20;;;3.03;;
75937;SDS011;64615;32.062;34.834;2023-11-19T02:06:51;8.80;;;3.42;;
75937;SDS011;64615;32.062;34.834;2023-11-19T02:09:21;7.65;;;3.28;;
75937;SDS011;64615;32.062;34.834;2023-11-19T02:11:47;7.43;;;3.35;;
75937;SDS011;64615;32.062;34.834;2023-11-19T02:14:16;7.40;;;3.20;;
75937;SDS011;64615;32.062;34.834;2023-11-19T02:16:43;8.52;;;3.00;;
75937;SDS011;64615;32.062;34.834;2023-11-19T02:19:09;8.75;;;3.45;;
75937;SDS011;64615;32.062;34.834;2023-11-19T02:21:36;9.43;;;3.70;;
75937;SDS011;64615;32.062;34.834;2023-11-19T02:24:06;9.32;;;3.30;;
75937;SDS011;64615;32.062;34.834;2023-11-19T02:26:39;8.48;;;3.40;;
75937;SDS011;64615;32.062;34.834;2023-11-19T02:29:12;9.45;;;3.45;;
75937;SDS011;64615;32.062;34.834;2023-11-19T02:31:38;6.60;;;3.30;;
75937;SDS011;64615;32.062;34.834;2023-11-19T02:34:04;9.85;;;3.50;;
75937;SDS011;64615;32.062;34.834;2023-11-19T02:36:30;10.45;;;3.53;;
75937;SDS011;64615;32.062;34.834;2023-11-19T02:38:57;8.55;;;3.58;;
75937;SDS011;64615;32.062;34.834;2023-11-19T02:41:23;11.50;;;3.63;;
75937;SDS011;64615;32.062;34.834;2023-11-19T02:43:49;7.22;;;3.70;;
75937;SDS011;64615;32.062;34.834;2023-11-19T02:46:15;9.55;;;3.40;;
75937;SDS011;64615;32.062;34.834;2023-11-19T02:48:42;10.98;;;3.70;;
75937;SDS011;64615;32.062;34.834;2023-11-19T02:51:09;9.45;;;3.47;;
75937;SDS011;64615;32.062;34.834;2023-11-19T02:53:35;13.00;;;4.13;;
75937;SDS011;64615;32.062;34.834;2023-11-19T02:56:05;9.65;;;3.72;;
75937;SDS011;64615;32.062;34.834;2023-11-19T02:58:44;10.18;;;3.63;;
75937;SDS011;64615;32.062;34.834;2023-11-19T03:01:11;8.85;;;3.65;;
75937;SDS011;64615;32.062;34.834;2023-11-19T03:03:56;13.65;;;4.22;;
75937;SDS011;64615;32.062;34.834;2023-11-19T03:06:23;12.88;;;4.22;;
75937;SDS011;64615;32.062;34.834;2023-11-19T03:08:49;9.05;;;3.83;;
75937;SDS011;64615;32.062;34.834;2023-11-19T03:11:15;14.93;;;4.45;;
75937;SDS011;64615;32.062;34.834;2023-11-19T03:13:41;10.45;;;4.03;;
75937;SDS011;64615;32.062;34.834;2023-11-19T03:16:07;12.88;;;4.72;;
75937;SDS011;64615;32.062;34.834;2023-11-19T03:18:32;11.75;;;4.50;;
75937;SDS011;64615;32.062;34.834;2023-11-19T03:20:58;15.82;;;4.75;;
75937;SDS011;64615;32.062;34.834;2023-11-19T03:23:24;13.48;;;4.40;;
75937;SDS011;64615;32.062;34.834;2023-11-19T03:25:53;13.75;;;4.32;;
75937;SDS011;64615;32.062;34.834;2023-11-19T03:28:19;10.93;;;4.22;;
75937;SDS011;64615;32.062;34.834;2023-11-19T03:30:44;12.65;;;5.00;;
75937;SDS011;64615;32.062;34.834;2023-11-19T03:33:10;14.70;;;4.60;;
75937;SDS011;64615;32.062;34.834;2023-11-19T03:35:36;14.40;;;4.90;;
75937;SDS011;64615;32.062;34.834;2023-11-19T03:38:02;15.00;;;4.45;;
75937;SDS011;64615;32.062;34.834;2023-11-19T03:40:28;17.92;;;5.43;;
75937;SDS011;64615;32.062;34.834;2023-11-19T03:42:55;14.70;;;5.20;;
75937;SDS011;64615;32.062;34.834;2023-11-19T03:45:22;13.20;;;4.68;;
75937;SDS011;64615;32.062;34.834;2023-11-19T03:47:48;12.77;;;4.88;;
75937;SDS011;64615;32.062;34.834;2023-11-19T03:50:15;13.40;;;4.82;;
75937;SDS011;64615;32.062;34.834;2023-11-19T03:52:41;13.10;;;4.45;;
75937;SDS011;64615;32.062;34.834;2023-11-19T03:55:07;14.90;;;5.20;;
75937;SDS011;64615;32.062;34.834;2023-11-19T03:57:34;14.20;;;5.00;;
75937;SDS011;64615;32.062;34.834;2023-11-19T04:00:00;13.90;;;5.00;;
75937;SDS011;64615;32.062;34.834;2023-11-19T04:02:32;13.65;;;4.78;;
75937;SDS011;64615;32.062;34.834;2023-11-19T04:04:58;12.75;;;4.88;;
75937;SDS011;64615;32.062;34.834;2023-11-19T04:07:23;12.93;;;5.22;;
75937;SDS011;64615;32.062;34.834;2023-11-19T04:09:49;11.93;;;5.13;;
75937;SDS011;64615;32.062;34.834;2023-11-19T04:12:15;9.65;;;4.60;;
75937;SDS011;64615;32.062;34.834;2023-11-19T04:14:40;15.80;;;4.65;;
75937;SDS011;64615;32.062;34.834;2023-11-19T04:17:06;20.95;;;5.40;;
75937;SDS011;64615;32.062;34.834;2023-11-19T04:19:31;14.57;;;5.30;;
75937;SDS011;64615;32.062;34.834;2023-11-19T04:21:58;11.38;;;4.95;;
75937;SDS011;64615;32.062;34.834;2023-11-19T04:24:23;18.88;;;5.47;;
75937;SDS011;64615;32.062;34.834;2023-11-19T04:26:49;16.55;;;5.30;;
75937;SDS011;64615;32.062;34.834;2023-11-19T04:29:15;18.23;;;5.05;;
75937;SDS011;64615;32.062;34.834;2023-11-19T04:31:42;17.67;;;5.22;;
75937;SDS011;64615;32.062;34.834;2023-11-19T04:34:12;12.70;;;5.30;;
75937;SDS011;64615;32.062;34.834;2023-11-19T04:36:37;14.18;;;5.13;;
75937;SDS011;64615;32.062;34.834;2023-11-19T04:39:04;12.30;;;4.82;;
75937;SDS011;64615;32.062;34.834;2023-11-19T04:41:48;15.70;;;5.10;;
75937;SDS011;64615;32.062;34.834;2023-11-19T04:44:15;15.00;;;5.10;;
75937;SDS011;64615;32.062;34.834;2023-11-19T04:46:44;17.58;;;5.28;;
75937;SDS011;64615;32.062;34.834;2023-11-19T04:49:10;17.50;;;4.97;;
75937;SDS011;64615;32.062;34.834;2023-11-19T04:54:06;11.95;;;4.63;;
75937;SDS011;64615;32.062;34.834;2023-11-19T04:56:33;12.55;;;4.90;;
75937;SDS011;64615;32.062;34.834;2023-11-19T04:59:01;12.13;;;4.35;;
75937;SDS011;64615;32.062;34.834;2023-11-19T05:01:27;10.15;;;4.53;;
75937;SDS011;64615;32.062;34.834;2023-11-19T05:03:53;15.02;;;4.43;;
75937;SDS011;64615;32.062;34.834;2023-11-19T05:06:18;16.88;;;5.18;;
75937;SDS011;64615;32.062;34.834;2023-11-19T05:08:44;12.93;;;4.53;;
75937;SDS011;64615;32.062;34.834;2023-11-19T05:11:10;14.90;;;4.50;;
75937;SDS011;64615;32.062;34.834;2023-11-19T05:13:37;12.32;;;4.63;;
75937;SDS011;64615;32.062;34.834;2023-11-19T05:16:03;15.65;;;4.60;;
75937;SDS011;64615;32.062;34.834;2023-11-19T05:18:29;13.32;;;4.90;;
75937;SDS011;64615;32.062;34.834;2023-11-19T05:20:55;14.07;;;4.72;;
75937;SDS011;64615;32.062;34.834;2023-11-19T05:23:20;16.25;;;4.65;;
75937;SDS011;64615;32.062;34.834;2023-11-19T05:25:46;10.90;;;4.15;;
75937;SDS011;64615;32.062;34.834;2023-11-19T05:28:12;12.90;;;4.30;;
75937;SDS011;64615;32.062;34.834;2023-11-19T05:30:39;13.38;;;4.63;;
75937;SDS011;64615;32.062;34.834;2023-11-19T05:33:05;13.68;;;4.40;;
75937;SDS011;64615;32.062;34.834;2023-11-19T05:35:31;14.50;;;4.32;;
75937;SDS011;64615;32.062;34.834;2023-11-19T05:37:57;15.25;;;3.78;;
75937;SDS011;64615;32.062;34.834;2023-11-19T05:40:23;15.05;;;4.40;;
75937;SDS011;64615;32.062;34.834;2023-11-19T05:42:48;10.15;;;3.85;;
75937;SDS011;64615;32.062;34.834;2023-11-19T05:45:14;15.70;;;5.05;;
75937;SDS011;64615;32.062;34.834;2023-11-19T05:47:40;26.02;;;4.85;;
75937;SDS011;64615;32.062;34.834;2023-11-19T05:50:06;16.02;;;4.80;;
75937;SDS011;64615;32.062;34.834;2023-11-19T05:52:33;25.73;;;5.07;;
75937;SDS011;64615;32.062;34.834;2023-11-19T05:55:02;24.98;;;5.80;;
75937;SDS011;64615;32.062;34.834;2023-11-19T05:57:30;15.40;;;4.55;;
75937;SDS011;64615;32.062;34.834;2023-11-19T05:59:56;14.93;;;4.40;;
75937;SDS011;64615;32.062;34.834;2023-11-19T06:02:22;15.10;;;4.28;;
75937;SDS011;64615;32.062;34.834;2023-11-19T06:04:47;18.45;;;5.28;;
75937;SDS011;64615;32.062;34.834;2023-11-19T06:07:14;16.13;;;4.45;;
75937;SDS011;64615;32.062;34.834;2023-11-19T06:09:40;14.38;;;4.72;;
75937;SDS011;64615;32.062;34.834;2023-11-19T06:12:06;19.02;;;4.85;;
75937;SDS011;64615;32.062;34.834;2023-11-19T06:14:32;19.00;;;4.70;;
75937;SDS011;64615;32.062;34.834;2023-11-19T06:16:58;21.42;;;5.28;;
75937;SDS011;64615;32.062;34.834;2023-11-19T06:19:24;21.45;;;5.30;;
75937;SDS011;64615;32.062;34.834;2023-11-19T06:21:50;15.80;;;4.90;;
75937;SDS011;64615;32.062;34.834;2023-11-19T06:24:16;18.52;;;5.30;;
75937;SDS011;64615;32.062;34.834;2023-11-19T06:26:41;18.15;;;5.10;;
75937;SDS011;64615;32.062;34.834;2023-11-19T06:29:07;15.13;;;4.80;;
75937;SDS011;64615;32.062;34.834;2023-11-19T06:31:32;22.05;;;5.50;;
75937;SDS011;64615;32.062;34.834;2023-11-19T06:33:58;20.70;;;5.35;;
75937;SDS011;64615;32.062;34.834;2023-11-19T06:36:24;18.15;;;5.68;;
75937;SDS011;64615;32.062;34.834;2023-11-19T06:38:49;21.40;;;5.82;;
75937;SDS011;64615;32.062;34.834;2023-11-19T06:41:15;16.15;;;5.18;;
75937;SDS011;64615;32.062;34.834;2023-11-19T06:43:40;21.67;;;5.50;;
75937;SDS011;64615;32.062;34.834;2023-11-19T06:46:14;18.00;;;5.50;;
75937;SDS011;64615;32.062;34.834;2023-11-19T06:48:43;19.60;;;5.80;;
75937;SDS011;64615;32.062;34.834;2023-11-19T06:51:09;15.32;;;5.80;;
75937;SDS011;64615;32.062;34.834;2023-11-19T06:53:35;18.98;;;5.68;;
75937;SDS011;64615;32.062;34.834;2023-11-19T06:56:01;20.25;;;5.47;;
75937;SDS011;64615;32.062;34.834;2023-11-19T06:58:31;22.02;;;5.80;;
75937;SDS011;64615;32.062;34.834;2023-11-19T07:00:59;22.80;;;5.63;;
75937;SDS011;64615;32.062;34.834;2023-11-19T07:03:25;21.08;;;4.72;;
75937;SDS011;64615;32.062;34.834;2023-11-19T07:05:50;19.60;;;4.80;;
75937;SDS011;64615;32.062;34.834;2023-11-19T07:08:16;21.98;;;4.85;;
75937;SDS011;64615;32.062;34.834;2023-11-19T07:10:42;19.80;;;5.05;;
75937;SDS011;64615;32.062;34.834;2023-11-19T07:13:07;18.95;;;4.97;;
75937;SDS011;64615;32.062;34.834;2023-11-19T07:15:33;15.80;;;4.57;;
75937;SDS011;64615;32.062;34.834;2023-11-19T07:17:59;19.92;;;4.30;;
75937;SDS011;64615;32.062;34.834;2023-11-19T07:20:25;19.80;;;3.97;;
75937;SDS011;64615;32.062;34.834;2023-11-19T07:22:52;19.13;;;3.65;;
75937;SDS011;64615;32.062;34.834;2023-11-19T07:25:17;15.93;;;3.35;;
75937;SDS011;64615;32.062;34.834;2023-11-19T07:27:43;14.30;;;3.63;;
75937;SDS011;64615;32.062;34.834;2023-11-19T07:30:09;16.10;;;4.00;;
75937;SDS011;64615;32.062;34.834;2023-11-19T07:32:35;16.65;;;3.30;;
75937;SDS011;64615;32.062;34.834;2023-11-19T07:35:00;15.52;;;3.30;;
75937;SDS011;64615;32.062;34.834;2023-11-19T07:37:26;12.98;;;3.10;;
75937;SDS011;64615;32.062;34.834;2023-11-19T07:39:51;12.98;;;3.30;;
75937;SDS011;64615;32.062;34.834;2023-11-19T07:42:17;12.50;;;3.13;;
75937;SDS011;64615;32.062;34.834;2023-11-19T07:44:43;10.75;;;3.08;;
75937;SDS011;64615;32.062;34.834;2023-11-19T07:47:09;11.73;;;2.97;;
75937;SDS011;64615;32.062;34.834;2023-11-19T07:49:35;11.05;;;2.95;;
75937;SDS011;64615;32.062;34.834;2023-11-19T07:52:01;13.80;;;3.10;;
75937;SDS011;64615;32.062;34.834;2023-11-19T07:54:28;9.35;;;2.53;;
75937;SDS011;64615;32.062;34.834;2023-11-19T07:56:53;9.88;;;2.60;;
75937;SDS011;64615;32.062;34.834;2023-11-19T07:59:19;11.98;;;2.65;;
75937;SDS011;64615;32.062;34.834;2023-11-19T08:01:45;10.30;;;2.17;;
75937;SDS011;64615;32.062;34.834;2023-11-19T08:04:10;12.80;;;2.50;;
75937;SDS011;64615;32.062;34.834;2023-11-19T08:06:36;11.23;;;2.38;;
75937;SDS011;64615;32.062;34.834;2023-11-19T08:09:02;12.15;;;2.25;;
75937;SDS011;64615;32.062;34.834;2023-11-19T08:11:27;11.55;;;1.90;;
75937;SDS011;64615;32.062;34.834;2023-11-19T08:13:53;14.77;;;2.60;;
75937;SDS011;64615;32.062;34.834;2023-11-19T08:16:19;13.43;;;2.33;;
75937;SDS011;64615;32.062;34.834;2023-11-19T08:18:44;15.85;;;2.35;;
75937;SDS011;64615;32.062;34.834;2023-11-19T08:21:10;12.80;;;2.15;;
75937;SDS011;64615;32.062;34.834;2023-11-19T08:23:36;13.35;;;2.13;;
75937;SDS011;64615;32.062;34.834;2023-11-19T08:26:02;19.10;;;2.67;;
75937;SDS011;64615;32.062;34.834;2023-11-19T08:28:28;21.20;;;3.05;;
75937;SDS011;64615;32.062;34.834;2023-11-19T08:30:53;22.10;;;2.80;;
75937;SDS011;64615;32.062;34.834;2023-11-19T08:33:19;24.30;;;3.30;;
75937;SDS011;64615;32.062;34.834;2023-11-19T08:35:47;18.83;;;2.67;;
75937;SDS011;64615;32.062;34.834;2023-11-19T08:38:13;19.73;;;2.60;;
75937;SDS011;64615;32.062;34.834;2023-11-19T08:40:38;17.38;;;3.10;;
75937;SDS011;64615;32.062;34.834;2023-11-19T08:43:04;16.48;;;2.88;;
75937;SDS011;64615;32.062;34.834;2023-11-19T08:45:30;18.23;;;2.35;;
75937;SDS011;64615;32.062;34.834;2023-11-19T08:47:56;20.40;;;2.88;;
75937;SDS011;64615;32.062;34.834;2023-11-19T08:50:22;15.70;;;2.45;;
75937;SDS011;64615;32.062;34.834;2023-11-19T08:52:49;16.58;;;2.70;;
75937;SDS011;64615;32.062;34.834;2023-11-19T08:55:14;15.68;;;2.75;;
75937;SDS011;64615;32.062;34.834;2023-11-19T08:57:40;17.38;;;3.47;;
75937;SDS011;64615;32.062;34.834;2023-11-19T09:00:06;17.75;;;2.60;;
75937;SDS011;64615;32.062;34.834;2023-11-19T09:02:33;22.67;;;3.25;;
75937;SDS011;64615;32.062;34.834;2023-11-19T09:05:00;19.67;;;3.00;;
75937;SDS011;64615;32.062;34.834;2023-11-19T09:07:27;12.13;;;2.42;;
75937;SDS011;64615;32.062;34.834;2023-11-19T09:09:52;15.32;;;2.85;;
75937;SDS011;64615;32.062;34.834;2023-11-19T09:12:18;14.75;;;2.47;;
75937;SDS011;64615;32.062;34.834;2023-11-19T09:14:43;14.07;;;2.40;;
75937;SDS011;64615;32.062;34.834;2023-11-19T09:17:10;11.70;;;2.33;;
75937;SDS011;64615;32.062;34.834;2023-11-19T09:19:36;13.02;;;2.28;;
75937;SDS011;64615;32.062;34.834;2023-11-19T09:22:02;13.45;;;2.10;;
75937;SDS011;64615;32.062;34.834;2023-11-19T09:24:27;10.75;;;2.42;;
75937;SDS011;64615;32.062;34.834;2023-11-19T09:26:53;9.55;;;2.03;;
75937;SDS011;64615;32.062;34.834;2023-11-19T09:29:20;11.98;;;2.17;;
75937;SDS011;64615;32.062;34.834;2023-11-19T09:31:46;12.52;;;2.15;;
75937;SDS011;64615;32.062;34.834;2023-11-19T09:34:12;10.27;;;2.17;;
75937;SDS011;64615;32.062;34.834;2023-11-19T09:36:37;14.00;;;2.20;;
75937;SDS011;64615;32.062;34.834;2023-11-19T09:39:04;7.65;;;1.70;;
75937;SDS011;64615;32.062;34.834;2023-11-19T09:41:33;11.55;;;2.03;;
75937;SDS011;64615;32.062;34.834;2023-11-19T09:43:59;7.60;;;1.90;;
75937;SDS011;64615;32.062;34.834;2023-11-19T09:46:25;10.82;;;2.10;;
75937;SDS011;64615;32.062;34.834;2023-11-19T09:48:55;10.88;;;2.33;;
75937;SDS011;64615;32.062;34.834;2023-11-19T09:51:21;12.35;;;2.15;;
75937;SDS011;64615;32.062;34.834;2023-11-19T09:53:50;10.43;;;2.00;;
75937;SDS011;64615;32.062;34.834;2023-11-19T09:56:16;11.73;;;2.05;;
75937;SDS011;64615;32.062;34.834;2023-11-19T09:58:44;10.05;;;1.98;;
75937;SDS011;64615;32.062;34.834;2023-11-19T10:01:10;7.63;;;1.85;;
75937;SDS011;64615;32.062;34.834;2023-11-19T10:03:37;9.73;;;2.03;;
75937;SDS011;64615;32.062;34.834;2023-11-19T10:06:08;14.25;;;2.28;;
75937;SDS011;64615;32.062;34.834;2023-11-19T10:08:36;13.07;;;2.10;;
75937;SDS011;64615;32.062;34.834;2023-11-19T10:11:04;14.90;;;2.97;;
75937;SDS011;64615;32.062;34.834;2023-11-19T10:13:31;19.17;;;3.13;;
75937;SDS011;64615;32.062;34.834;2023-11-19T10:15:56;18.95;;;2.78;;
75937;SDS011;64615;32.062;34.834;2023-11-19T10:18:25;15.40;;;3.17;;
75937;SDS011;64615;32.062;34.834;2023-11-19T10:20:51;21.17;;;2.92;;
75937;SDS011;64615;32.062;34.834;2023-11-19T10:23:18;17.02;;;2.70;;
75937;SDS011;64615;32.062;34.834;2023-11-19T10:25:43;17.50;;;2.60;;
75937;SDS011;64615;32.062;34.834;2023-11-19T10:28:09;16.17;;;2.95;;
75937;SDS011;64615;32.062;34.834;2023-11-19T10:30:34;14.25;;;2.38;;
75937;SDS011;64615;32.062;34.834;2023-11-19T10:33:04;16.60;;;3.05;;
75937;SDS011;64615;32.062;34.834;2023-11-19T10:35:33;14.05;;;2.53;;
75937;SDS011;64615;32.062;34.834;2023-11-19T10:38:00;13.98;;;2.78;;
75937;SDS011;64615;32.062;34.834;2023-11-19T10:40:39;17.33;;;2.80;;
75937;SDS011;64615;32.062;34.834;2023-11-19T10:43:05;15.55;;;2.90;;
75937;SDS011;64615;32.062;34.834;2023-11-19T10:45:33;12.02;;;2.60;;
75937;SDS011;64615;32.062;34.834;2023-11-19T10:47:59;19.48;;;2.58;;
75937;SDS011;64615;32.062;34.834;2023-11-19T10:50:24;10.15;;;2.22;;
75937;SDS011;64615;32.062;34.834;2023-11-19T10:52:52;11.18;;;2.17;;
75937;SDS011;64615;32.062;34.834;2023-11-19T10:55:26;11.80;;;2.53;;
75937;SDS011;64615;32.062;34.834;2023-11-19T10:57:55;14.48;;;2.78;;
75937;SDS011;64615;32.062;34.834;2023-11-19T11:00:24;12.88;;;2.40;;
75937;SDS011;64615;32.062;34.834;2023-11-19T11:02:54;11.07;;;2.17;;
75937;SDS011;64615;32.062;34.834;2023-11-19T11:05:22;10.65;;;2.00;;
75937;SDS011;64615;32.062;34.834;2023-11-19T11:07:48;12.20;;;2.22;;
75937;SDS011;64615;32.062;34.834;2023-11-19T11:10:17;11.85;;;2.10;;
75937;SDS011;64615;32.062;34.834;2023-11-19T11:12:47;12.63;;;2.20;;
75937;SDS011;64615;32.062;34.834;2023-11-19T11:15:15;10.77;;;2.08;;
75937;SDS011;64615;32.062;34.834;2023-11-19T11:17:43;10.20;;;1.83;;
75937;SDS011;64615;32.062;34.834;2023-11-19T11:20:11;8.35;;;1.85;;
75937;SDS011;64615;32.062;34.834;2023-11-19T11:23:22;12.43;;;2.28;;
75937;SDS011;64615;32.062;34.834;2023-11-19T11:31:12;8.18;;;1.60;;
75937;SDS011;64615;32.062;34.834;2023-11-19T11:34:06;7.18;;;1.60;;
75937;SDS011;64615;32.062;34.834;2023-11-19T11:39:35;8.57;;;1.58;;
75937;SDS011;64615;32.062;34.834;2023-11-19T11:50:08;5.72;;;1.20;;
75937;SDS011;64615;32.062;34.834;2023-11-19T11:55:24;7.85;;;1.65;;
75937;SDS011;64615;32.062;34.834;2023-11-19T11:58:05;6.25;;;1.13;;
75937;SDS011;64615;32.062;34.834;2023-11-19T12:00:32;6.40;;;1.27;;
75937;SDS011;64615;32.062;34.834;2023-11-19T12:03:02;7.63;;;1.85;;
75937;SDS011;64615;32.062;34.834;2023-11-19T12:05:30;8.55;;;1.38;;
75937;SDS011;64615;32.062;34.834;2023-11-19T12:10:26;7.05;;;1.63;;
75937;SDS011;64615;32.062;34.834;2023-11-19T12:12:59;8.32;;;1.50;;
75937;SDS011;64615;32.062;34.834;2023-11-19T12:15:26;9.52;;;1.73;;
75937;SDS011;64615;32.062;34.834;2023-11-19T12:17:53;7.97;;;1.45;;
75937;SDS011;64615;32.062;34.834;2023-11-19T12:20:20;7.25;;;1.42;;
75937;SDS011;64615;32.062;34.834;2023-11-19T12:22:48;9.05;;;1.70;;
75937;SDS011;64615;32.062;34.834;2023-11-19T12:25:14;9.68;;;1.70;;
75937;SDS011;64615;32.062;34.834;2023-11-19T12:27:50;6.53;;;1.33;;
75937;SDS011;64615;32.062;34.834;2023-11-19T12:30:20;7.07;;;1.55;;
75937;SDS011;64615;32.062;34.834;2023-11-19T12:32:49;6.95;;;1.15;;
75937;SDS011;64615;32.062;34.834;2023-11-19T12:35:14;6.20;;;1.30;;
75937;SDS011;64615;32.062;34.834;2023-11-19T12:37:44;6.85;;;1.35;;
75937;SDS011;64615;32.062;34.834;2023-11-19T12:40:14;5.82;;;1.15;;
75937;SDS011;64615;32.062;34.834;2023-11-19T12:42:41;5.65;;;1.25;;
75937;SDS011;64615;32.062;34.834;2023-11-19T12:45:07;5.72;;;1.13;;
75937;SDS011;64615;32.062;34.834;2023-11-19T12:47:36;4.30;;;1.20;;
75937;SDS011;64615;32.062;34.834;2023-11-19T12:50:02;4.22;;;0.95;;
75937;SDS011;64615;32.062;34.834;2023-11-19T12:52:29;5.32;;;1.38;;
75937;SDS011;64615;32.062;34.834;2023-11-19T12:54:55;6.00;;;1.10;;
75937;SDS011;64615;32.062;34.834;2023-11-19T12:57:35;5.93;;;1.25;;
75937;SDS011;64615;32.062;34.834;2023-11-19T13:00:03;5.32;;;0.95;;
75937;SDS011;64615;32.062;34.834;2023-11-19T13:02:49;4.70;;;0.80;;
75937;SDS011;64615;32.062;34.834;2023-11-19T13:05:28;4.63;;;0.90;;
75937;SDS011;64615;32.062;34.834;2023-11-19T13:07:58;5.97;;;1.30;;
75937;SDS011;64615;32.062;34.834;2023-11-19T13:10:24;6.13;;;1.33;;
75937;SDS011;64615;32.062;34.834;2023-11-19T13:13:03;6.38;;;1.30;;
75937;SDS011;64615;32.062;34.834;2023-11-19T13:15:33;6.18;;;1.33;;
75937;SDS011;64615;32.062;34.834;2023-11-19T13:18:00;6.75;;;1.30;;
75937;SDS011;64615;32.062;34.834;2023-11-19T13:20:26;5.65;;;1.20;;
75937;SDS011;64615;32.062;34.834;2023-11-19T13:22:59;7.40;;;1.30;;
75937;SDS011;64615;32.062;34.834;2023-11-19T13:25:27;7.32;;;1.60;;
75937;SDS011;64615;32.062;34.834;2023-11-19T13:27:53;3.85;;;1.17;;
75937;SDS011;64615;32.062;34.834;2023-11-19T13:30:20;7.65;;;1.70;;
75937;SDS011;64615;32.062;34.834;2023-11-19T13:32:47;8.23;;;1.33;;
75937;SDS011;64615;32.062;34.834;2023-11-19T13:35:13;6.38;;;1.20;;
75937;SDS011;64615;32.062;34.834;2023-11-19T13:37:39;5.45;;;1.20;;
75937;SDS011;64615;32.062;34.834;2023-11-19T13:40:09;7.15;;;1.45;;
75937;SDS011;64615;32.062;34.834;2023-11-19T13:42:38;7.72;;;1.55;;
75937;SDS011;64615;32.062;34.834;2023-11-19T13:45:09;8.00;;;1.70;;
75937;SDS011;64615;32.062;34.834;2023-11-19T13:47:42;8.45;;;1.55;;
75937;SDS011;64615;32.062;34.834;2023-11-19T13:50:09;9.63;;;1.40;;
75937;SDS011;64615;32.062;34.834;2023-11-19T13:52:39;5.93;;;1.30;;
75937;SDS011;64615;32.062;34.834;2023-11-19T13:55:06;7.65;;;1.30;;
75937;SDS011;64615;32.062;34.834;2023-11-19T13:57:33;5.82;;;1.10;;
75937;SDS011;64615;32.062;34.834;2023-11-19T13:59:59;7.70;;;1.20;;
75937;SDS011;64615;32.062;34.834;2023-11-19T14:02:28;9.10;;;1.70;;
75937;SDS011;64615;32.062;34.834;2023-11-19T14:04:53;8.35;;;1.65;;
75937;SDS011;64615;32.062;34.834;2023-11-19T14:07:19;8.43;;;1.35;;
75937;SDS011;64615;32.062;34.834;2023-11-19T14:09:45;6.00;;;1.63;;
75937;SDS011;64615;32.062;34.834;2023-11-19T14:12:11;7.13;;;1.52;;
75937;SDS011;64615;32.062;34.834;2023-11-19T14:14:38;5.45;;;1.52;;
75937;SDS011;64615;32.062;34.834;2023-11-19T14:17:04;10.68;;;1.90;;
75937;SDS011;64615;32.062;34.834;2023-11-19T14:19:30;7.47;;;1.50;;
75937;SDS011;64615;32.062;34.834;2023-11-19T14:21:56;11.10;;;1.67;;
75937;SDS011;64615;32.062;34.834;2023-11-19T14:24:21;7.38;;;1.20;;
75937;SDS011;64615;32.062;34.834;2023-11-19T14:26:47;7.05;;;1.38;;
75937;SDS011;64615;32.062;34.834;2023-11-19T14:29:14;7.57;;;1.48;;
75937;SDS011;64615;32.062;34.834;2023-11-19T14:31:39;5.53;;;1.17;;
75937;SDS011;64615;32.062;34.834;2023-11-19T14:34:05;7.88;;;1.40;;
75937;SDS011;64615;32.062;34.834;2023-11-19T14:36:30;6.30;;;1.50;;
75937;SDS011;64615;32.062;34.834;2023-11-19T14:38:56;10.57;;;1.42;;
75937;SDS011;64615;32.062;34.834;2023-11-19T14:41:23;7.75;;;1.70;;
75937;SDS011;64615;32.062;34.834;2023-11-19T14:43:49;8.38;;;1.42;;
75937;SDS011;64615;32.062;34.834;2023-11-19T14:46:15;5.97;;;1.35;;
75937;SDS011;64615;32.062;34.834;2023-11-19T14:48:41;7.10;;;1.13;;
75937;SDS011;64615;32.062;34.834;2023-11-19T14:51:07;5.70;;;1.20;;